sensor_id;sensor_type;location;lat;lon;timestamp;P1;durP1;ratioP1;P2;durP2;ratioP2
26102;SDS011;32703;49.182;9.042;2022-08-03T00:01:27;1.83;;;1.10;;
26102;SDS011;32703;49.182;9.042;2022-08-03T00:03:53;1.80;;;1.33;;
26102;SDS011;32703;49.182;9.042;2022-08-03T00:06:19;1.58;;;1.40;;
26102;SDS011;32703;49.182;9.042;2022-08-03T00:08:44;4.10;;;1.50;;
26102;SDS011;32703;49.182;9.042;2022-08-03T00:11:10;2.05;;;1.17;;
26102;SDS011;32703;49.182;9.042;2022-08-03T00:13:35;2.72;;;1.48;;
26102;SDS011;32703;49.182;9.042;2022-08-03T00:16:01;1.75;;;1.20;;
26102;SDS011;32703;49.182;9.042;2022-08-03T00:18:26;1.60;;;1.30;;
26102;SDS011;32703;49.182;9.042;2022-08-03T00:20:52;1.70;;;1.30;;
26102;SDS011;32703;49.182;9.042;2022-08-03T00:23:18;1.77;;;1.10;;
26102;SDS011;32703;49.182;9.042;2022-08-03T00:25:46;1.45;;;1.35;;
26102;SDS011;32703;49.182;9.042;2022-08-03T00:28:11;1.50;;;1.20;;
26102;SDS011;32703;49.182;9.042;2022-08-03T00:30:37;1.30;;;1.10;;
26102;SDS011;32703;49.182;9.042;2022-08-03T00:33:02;2.17;;;1.40;;
26102;SDS011;32703;49.182;9.042;2022-08-03T00:35:28;1.70;;;1.15;;
26102;SDS011;32703;49.182;9.042;2022-08-03T00:37:55;2.45;;;1.20;;
26102;SDS011;32703;49.182;9.042;2022-08-03T00:40:22;1.52;;;1.20;;
26102;SDS011;32703;49.182;9.042;2022-08-03T00:42:51;3.80;;;1.20;;
26102;SDS011;32703;49.182;9.042;2022-08-03T00:45:20;2.03;;;1.30;;
26102;SDS011;32703;49.182;9.042;2022-08-03T00:47:46;1.70;;;1.23;;
26102;SDS011;32703;49.182;9.042;2022-08-03T00:50:12;1.50;;;1.23;;
26102;SDS011;32703;49.182;9.042;2022-08-03T00:52:38;2.88;;;1.30;;
26102;SDS011;32703;49.182;9.042;2022-08-03T00:55:04;1.33;;;1.10;;
26102;SDS011;32703;49.182;9.042;2022-08-03T00:57:30;3.30;;;1.65;;
26102;SDS011;32703;49.182;9.042;2022-08-03T01:00:00;2.65;;;1.10;;
26102;SDS011;32703;49.182;9.042;2022-08-03T01:02:26;8.75;;;1.60;;
26102;SDS011;32703;49.182;9.042;2022-08-03T01:04:53;1.70;;;1.23;;
26102;SDS011;32703;49.182;9.042;2022-08-03T01:10:00;3.60;;;1.70;;
26102;SDS011;32703;49.182;9.042;2022-08-03T01:12:38;1.85;;;1.42;;
26102;SDS011;32703;49.182;9.042;2022-08-03T01:15:48;1.77;;;1.38;;
26102;SDS011;32703;49.182;9.042;2022-08-03T01:18:16;2.30;;;1.40;;
26102;SDS011;32703;49.182;9.042;2022-08-03T01:20:47;1.85;;;1.50;;
26102;SDS011;32703;49.182;9.042;2022-08-03T01:31:57;1.70;;;1.45;;
26102;SDS011;32703;49.182;9.042;2022-08-03T01:34:30;3.05;;;1.55;;
26102;SDS011;32703;49.182;9.042;2022-08-03T01:37:00;2.83;;;1.45;;
26102;SDS011;32703;49.182;9.042;2022-08-03T01:39:30;2.13;;;1.55;;
26102;SDS011;32703;49.182;9.042;2022-08-03T01:42:00;3.03;;;1.58;;
26102;SDS011;32703;49.182;9.042;2022-08-03T01:44:33;2.55;;;1.40;;
26102;SDS011;32703;49.182;9.042;2022-08-03T01:47:02;1.95;;;1.40;;
26102;SDS011;32703;49.182;9.042;2022-08-03T01:49:31;1.80;;;1.40;;
26102;SDS011;32703;49.182;9.042;2022-08-03T01:52:01;2.17;;;1.40;;
26102;SDS011;32703;49.182;9.042;2022-08-03T01:54:28;1.73;;;1.35;;
26102;SDS011;32703;49.182;9.042;2022-08-03T01:56:55;3.08;;;1.33;;
26102;SDS011;32703;49.182;9.042;2022-08-03T01:59:22;1.20;;;1.10;;
26102;SDS011;32703;49.182;9.042;2022-08-03T02:01:50;1.75;;;1.13;;
26102;SDS011;32703;49.182;9.042;2022-08-03T02:04:17;1.92;;;1.33;;
26102;SDS011;32703;49.182;9.042;2022-08-03T02:06:45;1.92;;;1.40;;
26102;SDS011;32703;49.182;9.042;2022-08-03T02:09:12;3.03;;;1.20;;
26102;SDS011;32703;49.182;9.042;2022-08-03T02:11:41;1.88;;;1.30;;
26102;SDS011;32703;49.182;9.042;2022-08-03T02:14:08;1.92;;;1.48;;
26102;SDS011;32703;49.182;9.042;2022-08-03T02:16:35;2.35;;;1.40;;
26102;SDS011;32703;49.182;9.042;2022-08-03T02:19:01;1.80;;;1.48;;
26102;SDS011;32703;49.182;9.042;2022-08-03T02:21:31;1.95;;;1.20;;
26102;SDS011;32703;49.182;9.042;2022-08-03T02:24:00;1.45;;;1.30;;
26102;SDS011;32703;49.182;9.042;2022-08-03T02:26:28;2.60;;;1.30;;
26102;SDS011;32703;49.182;9.042;2022-08-03T02:28:55;1.73;;;1.20;;
26102;SDS011;32703;49.182;9.042;2022-08-03T02:31:23;2.42;;;1.38;;
26102;SDS011;32703;49.182;9.042;2022-08-03T02:33:53;2.67;;;1.58;;
26102;SDS011;32703;49.182;9.042;2022-08-03T02:36:23;2.97;;;1.77;;
26102;SDS011;32703;49.182;9.042;2022-08-03T02:38:52;1.98;;;1.40;;
26102;SDS011;32703;49.182;9.042;2022-08-03T02:41:24;1.73;;;1.23;;
26102;SDS011;32703;49.182;9.042;2022-08-03T02:43:56;2.63;;;1.40;;
26102;SDS011;32703;49.182;9.042;2022-08-03T02:46:27;1.85;;;1.40;;
26102;SDS011;32703;49.182;9.042;2022-08-03T02:48:56;2.05;;;1.30;;
26102;SDS011;32703;49.182;9.042;2022-08-03T02:51:25;1.98;;;1.30;;
26102;SDS011;32703;49.182;9.042;2022-08-03T02:53:53;1.98;;;1.27;;
26102;SDS011;32703;49.182;9.042;2022-08-03T02:56:20;2.70;;;1.40;;
26102;SDS011;32703;49.182;9.042;2022-08-03T02:58:47;2.22;;;1.48;;
26102;SDS011;32703;49.182;9.042;2022-08-03T03:01:13;2.15;;;1.52;;
26102;SDS011;32703;49.182;9.042;2022-08-03T03:03:40;2.40;;;1.40;;
26102;SDS011;32703;49.182;9.042;2022-08-03T03:06:06;2.60;;;1.40;;
26102;SDS011;32703;49.182;9.042;2022-08-03T03:08:35;2.58;;;1.58;;
26102;SDS011;32703;49.182;9.042;2022-08-03T03:11:01;1.90;;;1.30;;
26102;SDS011;32703;49.182;9.042;2022-08-03T03:13:28;3.80;;;1.70;;
26102;SDS011;32703;49.182;9.042;2022-08-03T03:15:55;1.40;;;1.23;;
26102;SDS011;32703;49.182;9.042;2022-08-03T03:18:23;2.10;;;1.25;;
26102;SDS011;32703;49.182;9.042;2022-08-03T03:20:51;1.80;;;1.40;;
26102;SDS011;32703;49.182;9.042;2022-08-03T03:23:17;2.33;;;1.38;;
26102;SDS011;32703;49.182;9.042;2022-08-03T03:25:48;1.55;;;1.02;;
26102;SDS011;32703;49.182;9.042;2022-08-03T03:28:15;2.85;;;1.60;;
26102;SDS011;32703;49.182;9.042;2022-08-03T03:30:41;1.92;;;1.45;;
26102;SDS011;32703;49.182;9.042;2022-08-03T03:33:07;2.35;;;1.30;;
26102;SDS011;32703;49.182;9.042;2022-08-03T03:35:33;3.28;;;1.83;;
26102;SDS011;32703;49.182;9.042;2022-08-03T03:37:59;2.10;;;1.40;;
26102;SDS011;32703;49.182;9.042;2022-08-03T03:40:24;2.03;;;1.50;;
26102;SDS011;32703;49.182;9.042;2022-08-03T03:42:51;2.63;;;1.77;;
26102;SDS011;32703;49.182;9.042;2022-08-03T03:45:17;2.08;;;1.45;;
26102;SDS011;32703;49.182;9.042;2022-08-03T03:47:44;2.50;;;1.58;;
26102;SDS011;32703;49.182;9.042;2022-08-03T03:50:10;1.55;;;1.30;;
26102;SDS011;32703;49.182;9.042;2022-08-03T03:52:36;2.10;;;1.45;;
26102;SDS011;32703;49.182;9.042;2022-08-03T03:55:01;3.80;;;1.50;;
26102;SDS011;32703;49.182;9.042;2022-08-03T03:57:27;2.47;;;1.30;;
26102;SDS011;32703;49.182;9.042;2022-08-03T03:59:53;2.28;;;1.52;;
26102;SDS011;32703;49.182;9.042;2022-08-03T04:02:19;2.55;;;1.38;;
26102;SDS011;32703;49.182;9.042;2022-08-03T04:04:44;2.05;;;1.45;;
26102;SDS011;32703;49.182;9.042;2022-08-03T04:07:29;2.08;;;1.23;;
26102;SDS011;32703;49.182;9.042;2022-08-03T04:10:21;1.42;;;1.20;;
26102;SDS011;32703;49.182;9.042;2022-08-03T04:13:09;2.65;;;1.63;;
26102;SDS011;32703;49.182;9.042;2022-08-03T04:15:39;1.77;;;1.50;;
26102;SDS011;32703;49.182;9.042;2022-08-03T04:18:06;4.28;;;1.42;;
26102;SDS011;32703;49.182;9.042;2022-08-03T04:20:35;1.65;;;1.17;;
26102;SDS011;32703;49.182;9.042;2022-08-03T04:23:02;2.60;;;1.52;;
26102;SDS011;32703;49.182;9.042;2022-08-03T04:25:31;2.17;;;1.60;;
26102;SDS011;32703;49.182;9.042;2022-08-03T04:27:59;1.92;;;1.30;;
26102;SDS011;32703;49.182;9.042;2022-08-03T04:30:29;2.63;;;1.60;;
26102;SDS011;32703;49.182;9.042;2022-08-03T04:32:57;1.75;;;1.35;;
26102;SDS011;32703;49.182;9.042;2022-08-03T04:35:25;2.38;;;1.48;;
26102;SDS011;32703;49.182;9.042;2022-08-03T04:37:58;1.50;;;1.30;;
26102;SDS011;32703;49.182;9.042;2022-08-03T04:40:29;2.15;;;1.45;;
26102;SDS011;32703;49.182;9.042;2022-08-03T04:42:57;2.10;;;1.48;;
26102;SDS011;32703;49.182;9.042;2022-08-03T04:45:23;2.17;;;1.73;;
26102;SDS011;32703;49.182;9.042;2022-08-03T04:47:52;2.20;;;1.50;;
26102;SDS011;32703;49.182;9.042;2022-08-03T04:50:19;2.90;;;1.55;;
26102;SDS011;32703;49.182;9.042;2022-08-03T04:52:45;1.77;;;1.55;;
26102;SDS011;32703;49.182;9.042;2022-08-03T04:55:11;2.50;;;1.83;;
26102;SDS011;32703;49.182;9.042;2022-08-03T04:57:48;2.53;;;1.63;;
26102;SDS011;32703;49.182;9.042;2022-08-03T05:00:14;4.63;;;1.60;;
26102;SDS011;32703;49.182;9.042;2022-08-03T05:02:40;5.32;;;2.20;;
26102;SDS011;32703;49.182;9.042;2022-08-03T05:05:05;3.83;;;1.67;;
26102;SDS011;32703;49.182;9.042;2022-08-03T05:07:31;2.03;;;1.45;;
26102;SDS011;32703;49.182;9.042;2022-08-03T05:09:57;2.35;;;1.67;;
26102;SDS011;32703;49.182;9.042;2022-08-03T05:12:22;4.30;;;1.35;;
26102;SDS011;32703;49.182;9.042;2022-08-03T05:14:48;2.00;;;1.50;;
26102;SDS011;32703;49.182;9.042;2022-08-03T05:17:13;1.90;;;1.42;;
26102;SDS011;32703;49.182;9.042;2022-08-03T05:19:39;1.58;;;1.30;;
26102;SDS011;32703;49.182;9.042;2022-08-03T05:22:04;2.25;;;1.67;;
26102;SDS011;32703;49.182;9.042;2022-08-03T05:24:30;1.75;;;1.30;;
26102;SDS011;32703;49.182;9.042;2022-08-03T05:26:55;1.83;;;1.40;;
26102;SDS011;32703;49.182;9.042;2022-08-03T05:29:21;1.52;;;1.13;;
26102;SDS011;32703;49.182;9.042;2022-08-03T05:31:46;1.48;;;1.38;;
26102;SDS011;32703;49.182;9.042;2022-08-03T05:34:12;2.50;;;1.23;;
26102;SDS011;32703;49.182;9.042;2022-08-03T05:36:38;1.60;;;1.25;;
26102;SDS011;32703;49.182;9.042;2022-08-03T05:39:03;2.33;;;1.52;;
26102;SDS011;32703;49.182;9.042;2022-08-03T05:41:29;3.30;;;1.30;;
26102;SDS011;32703;49.182;9.042;2022-08-03T05:43:55;1.95;;;1.17;;
26102;SDS011;32703;49.182;9.042;2022-08-03T05:46:21;1.60;;;1.50;;
26102;SDS011;32703;49.182;9.042;2022-08-03T05:48:47;1.70;;;1.35;;
26102;SDS011;32703;49.182;9.042;2022-08-03T05:51:13;1.95;;;1.63;;
26102;SDS011;32703;49.182;9.042;2022-08-03T05:53:39;3.58;;;1.85;;
26102;SDS011;32703;49.182;9.042;2022-08-03T05:56:06;1.63;;;1.33;;
26102;SDS011;32703;49.182;9.042;2022-08-03T05:58:31;2.55;;;1.60;;
26102;SDS011;32703;49.182;9.042;2022-08-03T06:00:57;3.88;;;1.63;;
26102;SDS011;32703;49.182;9.042;2022-08-03T06:03:22;3.92;;;1.48;;
26102;SDS011;32703;49.182;9.042;2022-08-03T06:05:48;2.47;;;1.73;;
26102;SDS011;32703;49.182;9.042;2022-08-03T06:08:13;2.95;;;1.67;;
26102;SDS011;32703;49.182;9.042;2022-08-03T06:10:39;3.55;;;1.70;;
26102;SDS011;32703;49.182;9.042;2022-08-03T06:13:04;2.53;;;1.40;;
26102;SDS011;32703;49.182;9.042;2022-08-03T06:15:30;2.55;;;1.75;;
26102;SDS011;32703;49.182;9.042;2022-08-03T06:17:57;2.15;;;1.48;;
26102;SDS011;32703;49.182;9.042;2022-08-03T06:20:23;2.45;;;1.63;;
26102;SDS011;32703;49.182;9.042;2022-08-03T06:22:49;2.47;;;1.67;;
26102;SDS011;32703;49.182;9.042;2022-08-03T06:25:15;1.75;;;1.50;;
26102;SDS011;32703;49.182;9.042;2022-08-03T06:27:41;3.15;;;1.55;;
26102;SDS011;32703;49.182;9.042;2022-08-03T06:30:07;4.10;;;1.60;;
26102;SDS011;32703;49.182;9.042;2022-08-03T06:32:38;3.20;;;1.40;;
26102;SDS011;32703;49.182;9.042;2022-08-03T06:35:04;4.35;;;1.40;;
26102;SDS011;32703;49.182;9.042;2022-08-03T06:37:31;2.22;;;1.55;;
26102;SDS011;32703;49.182;9.042;2022-08-03T06:40:05;2.50;;;1.92;;
26102;SDS011;32703;49.182;9.042;2022-08-03T06:42:31;1.40;;;1.30;;
26102;SDS011;32703;49.182;9.042;2022-08-03T06:44:57;3.05;;;1.90;;
26102;SDS011;32703;49.182;9.042;2022-08-03T06:47:22;2.00;;;1.60;;
26102;SDS011;32703;49.182;9.042;2022-08-03T06:49:48;2.60;;;1.45;;
26102;SDS011;32703;49.182;9.042;2022-08-03T06:52:13;1.67;;;1.50;;
26102;SDS011;32703;49.182;9.042;2022-08-03T06:54:39;4.03;;;1.48;;
26102;SDS011;32703;49.182;9.042;2022-08-03T06:57:05;3.90;;;1.65;;
26102;SDS011;32703;49.182;9.042;2022-08-03T06:59:32;2.03;;;1.35;;
26102;SDS011;32703;49.182;9.042;2022-08-03T07:01:57;2.85;;;1.65;;
26102;SDS011;32703;49.182;9.042;2022-08-03T07:04:23;2.80;;;1.80;;
26102;SDS011;32703;49.182;9.042;2022-08-03T07:06:51;4.40;;;1.80;;
26102;SDS011;32703;49.182;9.042;2022-08-03T07:09:16;5.00;;;1.55;;
26102;SDS011;32703;49.182;9.042;2022-08-03T07:11:42;1.65;;;1.30;;
26102;SDS011;32703;49.182;9.042;2022-08-03T07:14:07;2.50;;;1.60;;
26102;SDS011;32703;49.182;9.042;2022-08-03T07:16:33;4.38;;;1.58;;
26102;SDS011;32703;49.182;9.042;2022-08-03T07:18:58;2.33;;;1.80;;
26102;SDS011;32703;49.182;9.042;2022-08-03T07:21:24;1.60;;;1.40;;
26102;SDS011;32703;49.182;9.042;2022-08-03T07:23:50;2.45;;;1.60;;
26102;SDS011;32703;49.182;9.042;2022-08-03T07:26:15;2.05;;;1.40;;
26102;SDS011;32703;49.182;9.042;2022-08-03T07:28:41;2.58;;;1.75;;
26102;SDS011;32703;49.182;9.042;2022-08-03T07:31:06;1.80;;;1.48;;
26102;SDS011;32703;49.182;9.042;2022-08-03T07:33:32;2.42;;;1.55;;
26102;SDS011;32703;49.182;9.042;2022-08-03T07:35:57;2.35;;;1.65;;
26102;SDS011;32703;49.182;9.042;2022-08-03T07:38:23;2.55;;;1.70;;
26102;SDS011;32703;49.182;9.042;2022-08-03T07:40:48;2.38;;;1.52;;
26102;SDS011;32703;49.182;9.042;2022-08-03T07:43:14;1.92;;;1.52;;
26102;SDS011;32703;49.182;9.042;2022-08-03T07:45:41;2.00;;;1.48;;
26102;SDS011;32703;49.182;9.042;2022-08-03T07:48:07;2.55;;;1.65;;
26102;SDS011;32703;49.182;9.042;2022-08-03T07:50:32;1.55;;;1.35;;
26102;SDS011;32703;49.182;9.042;2022-08-03T07:52:58;1.92;;;1.38;;
26102;SDS011;32703;49.182;9.042;2022-08-03T07:55:24;1.98;;;1.65;;
26102;SDS011;32703;49.182;9.042;2022-08-03T07:57:58;2.10;;;1.40;;
26102;SDS011;32703;49.182;9.042;2022-08-03T08:00:26;2.08;;;1.65;;
26102;SDS011;32703;49.182;9.042;2022-08-03T08:02:52;3.15;;;1.50;;
26102;SDS011;32703;49.182;9.042;2022-08-03T08:05:18;3.70;;;2.00;;
26102;SDS011;32703;49.182;9.042;2022-08-03T08:07:43;2.90;;;1.40;;
26102;SDS011;32703;49.182;9.042;2022-08-03T08:10:09;3.13;;;1.30;;
26102;SDS011;32703;49.182;9.042;2022-08-03T08:12:35;2.28;;;1.60;;
26102;SDS011;32703;49.182;9.042;2022-08-03T08:15:00;1.65;;;1.38;;
26102;SDS011;32703;49.182;9.042;2022-08-03T08:17:26;1.65;;;1.42;;
26102;SDS011;32703;49.182;9.042;2022-08-03T08:19:52;1.50;;;1.35;;
26102;SDS011;32703;49.182;9.042;2022-08-03T08:22:18;1.30;;;1.20;;
26102;SDS011;32703;49.182;9.042;2022-08-03T08:24:43;1.77;;;1.17;;
26102;SDS011;32703;49.182;9.042;2022-08-03T08:27:09;1.40;;;1.30;;
26102;SDS011;32703;49.182;9.042;2022-08-03T08:29:36;1.92;;;1.40;;
26102;SDS011;32703;49.182;9.042;2022-08-03T08:32:02;3.67;;;1.60;;
26102;SDS011;32703;49.182;9.042;2022-08-03T08:34:28;4.32;;;1.45;;
26102;SDS011;32703;49.182;9.042;2022-08-03T08:36:53;1.83;;;1.40;;
26102;SDS011;32703;49.182;9.042;2022-08-03T08:39:19;1.80;;;1.50;;
26102;SDS011;32703;49.182;9.042;2022-08-03T08:41:45;3.30;;;1.33;;
26102;SDS011;32703;49.182;9.042;2022-08-03T08:44:10;1.55;;;1.30;;
26102;SDS011;32703;49.182;9.042;2022-08-03T08:46:36;2.17;;;1.40;;
26102;SDS011;32703;49.182;9.042;2022-08-03T08:49:03;1.52;;;1.30;;
26102;SDS011;32703;49.182;9.042;2022-08-03T08:51:32;3.45;;;1.65;;
26102;SDS011;32703;49.182;9.042;2022-08-03T08:54:02;2.47;;;1.42;;
26102;SDS011;32703;49.182;9.042;2022-08-03T08:56:31;1.58;;;1.38;;
26102;SDS011;32703;49.182;9.042;2022-08-03T08:58:58;1.48;;;1.17;;
26102;SDS011;32703;49.182;9.042;2022-08-03T09:01:24;2.38;;;1.30;;
26102;SDS011;32703;49.182;9.042;2022-08-03T09:03:50;3.95;;;1.38;;
26102;SDS011;32703;49.182;9.042;2022-08-03T09:06:18;2.33;;;1.30;;
26102;SDS011;32703;49.182;9.042;2022-08-03T09:08:47;1.70;;;1.38;;
26102;SDS011;32703;49.182;9.042;2022-08-03T09:11:12;2.13;;;1.08;;
26102;SDS011;32703;49.182;9.042;2022-08-03T09:13:38;1.85;;;1.42;;
26102;SDS011;32703;49.182;9.042;2022-08-03T09:16:14;1.77;;;1.20;;
26102;SDS011;32703;49.182;9.042;2022-08-03T09:18:42;2.60;;;1.50;;
26102;SDS011;32703;49.182;9.042;2022-08-03T09:21:16;1.48;;;1.38;;
26102;SDS011;32703;49.182;9.042;2022-08-03T09:23:50;1.10;;;1.00;;
26102;SDS011;32703;49.182;9.042;2022-08-03T09:26:29;1.42;;;1.10;;
26102;SDS011;32703;49.182;9.042;2022-08-03T09:31:35;1.58;;;1.10;;
26102;SDS011;32703;49.182;9.042;2022-08-03T09:34:02;2.85;;;1.38;;
26102;SDS011;32703;49.182;9.042;2022-08-03T09:39:09;1.00;;;0.90;;
26102;SDS011;32703;49.182;9.042;2022-08-03T09:41:42;1.00;;;0.90;;
26102;SDS011;32703;49.182;9.042;2022-08-03T09:44:09;0.88;;;0.85;;
26102;SDS011;32703;49.182;9.042;2022-08-03T09:46:50;1.58;;;1.05;;
26102;SDS011;32703;49.182;9.042;2022-08-03T09:49:18;1.88;;;1.15;;
26102;SDS011;32703;49.182;9.042;2022-08-03T09:51:44;1.27;;;0.90;;
26102;SDS011;32703;49.182;9.042;2022-08-03T09:54:09;2.92;;;1.20;;
26102;SDS011;32703;49.182;9.042;2022-08-03T09:56:39;0.88;;;0.85;;
26102;SDS011;32703;49.182;9.042;2022-08-03T09:59:05;1.15;;;0.82;;
26102;SDS011;32703;49.182;9.042;2022-08-03T10:01:31;0.90;;;0.80;;
26102;SDS011;32703;49.182;9.042;2022-08-03T10:04:01;0.82;;;0.80;;
26102;SDS011;32703;49.182;9.042;2022-08-03T10:06:27;0.98;;;0.80;;
26102;SDS011;32703;49.182;9.042;2022-08-03T10:09:06;1.00;;;0.90;;
26102;SDS011;32703;49.182;9.042;2022-08-03T10:11:32;1.33;;;1.00;;
26102;SDS011;32703;49.182;9.042;2022-08-03T10:14:05;1.33;;;0.80;;
26102;SDS011;32703;49.182;9.042;2022-08-03T10:16:34;0.98;;;0.82;;
26102;SDS011;32703;49.182;9.042;2022-08-03T10:19:03;1.38;;;0.80;;
26102;SDS011;32703;49.182;9.042;2022-08-03T10:21:34;1.58;;;1.20;;
26102;SDS011;32703;49.182;9.042;2022-08-03T10:24:06;1.15;;;0.88;;
26102;SDS011;32703;49.182;9.042;2022-08-03T10:26:35;1.10;;;1.00;;
26102;SDS011;32703;49.182;9.042;2022-08-03T10:29:04;1.75;;;0.93;;
26102;SDS011;32703;49.182;9.042;2022-08-03T10:31:37;0.90;;;0.90;;
26102;SDS011;32703;49.182;9.042;2022-08-03T10:34:05;3.63;;;1.00;;
26102;SDS011;32703;49.182;9.042;2022-08-03T10:36:35;5.53;;;1.02;;
26102;SDS011;32703;49.182;9.042;2022-08-03T10:39:02;2.17;;;0.98;;
26102;SDS011;32703;49.182;9.042;2022-08-03T10:41:34;1.27;;;1.17;;
26102;SDS011;32703;49.182;9.042;2022-08-03T10:44:07;2.10;;;0.90;;
26102;SDS011;32703;49.182;9.042;2022-08-03T10:46:35;1.17;;;0.85;;
26102;SDS011;32703;49.182;9.042;2022-08-03T10:49:03;2.85;;;1.10;;
26102;SDS011;32703;49.182;9.042;2022-08-03T10:51:30;1.25;;;1.10;;
26102;SDS011;32703;49.182;9.042;2022-08-03T10:53:56;1.05;;;0.95;;
26102;SDS011;32703;49.182;9.042;2022-08-03T10:56:40;1.95;;;1.10;;
26102;SDS011;32703;49.182;9.042;2022-08-03T11:02:10;2.53;;;1.10;;
26102;SDS011;32703;49.182;9.042;2022-08-03T11:04:37;1.10;;;0.98;;
26102;SDS011;32703;49.182;9.042;2022-08-03T11:09:58;0.80;;;0.80;;
26102;SDS011;32703;49.182;9.042;2022-08-03T11:12:27;1.90;;;1.15;;
26102;SDS011;32703;49.182;9.042;2022-08-03T11:14:55;1.75;;;1.30;;
26102;SDS011;32703;49.182;9.042;2022-08-03T11:17:23;1.10;;;1.00;;
26102;SDS011;32703;49.182;9.042;2022-08-03T11:19:50;1.10;;;1.00;;
26102;SDS011;32703;49.182;9.042;2022-08-03T11:22:17;1.25;;;0.95;;
26102;SDS011;32703;49.182;9.042;2022-08-03T11:27:18;4.65;;;1.10;;
26102;SDS011;32703;49.182;9.042;2022-08-03T11:29:55;1.20;;;1.10;;
26102;SDS011;32703;49.182;9.042;2022-08-03T11:46:09;2.15;;;1.02;;
26102;SDS011;32703;49.182;9.042;2022-08-03T11:48:45;1.63;;;1.33;;
26102;SDS011;32703;49.182;9.042;2022-08-03T11:51:24;1.10;;;1.00;;
26102;SDS011;32703;49.182;9.042;2022-08-03T11:53:53;1.33;;;1.20;;
26102;SDS011;32703;49.182;9.042;2022-08-03T11:56:26;1.52;;;1.10;;
26102;SDS011;32703;49.182;9.042;2022-08-03T11:58:54;1.40;;;1.20;;
26102;SDS011;32703;49.182;9.042;2022-08-03T12:01:21;1.65;;;1.23;;
26102;SDS011;32703;49.182;9.042;2022-08-03T12:03:48;1.50;;;1.20;;
26102;SDS011;32703;49.182;9.042;2022-08-03T12:06:15;1.60;;;1.00;;
26102;SDS011;32703;49.182;9.042;2022-08-03T12:08:42;1.30;;;1.20;;
26102;SDS011;32703;49.182;9.042;2022-08-03T12:11:10;1.60;;;1.00;;
26102;SDS011;32703;49.182;9.042;2022-08-03T12:13:46;1.20;;;1.00;;
26102;SDS011;32703;49.182;9.042;2022-08-03T12:16:18;1.23;;;0.95;;
26102;SDS011;32703;49.182;9.042;2022-08-03T12:18:58;1.40;;;1.17;;
26102;SDS011;32703;49.182;9.042;2022-08-03T12:21:25;1.23;;;1.13;;
26102;SDS011;32703;49.182;9.042;2022-08-03T12:23:55;1.17;;;1.05;;
26102;SDS011;32703;49.182;9.042;2022-08-03T12:26:24;1.15;;;0.98;;
26102;SDS011;32703;49.182;9.042;2022-08-03T12:28:50;1.13;;;1.02;;
26102;SDS011;32703;49.182;9.042;2022-08-03T12:31:16;1.50;;;1.02;;
26102;SDS011;32703;49.182;9.042;2022-08-03T12:36:23;0.77;;;0.60;;
26102;SDS011;32703;49.182;9.042;2022-08-03T12:38:55;1.20;;;0.75;;
26102;SDS011;32703;49.182;9.042;2022-08-03T12:41:33;1.10;;;1.00;;
26102;SDS011;32703;49.182;9.042;2022-08-03T12:44:01;0.75;;;0.73;;
26102;SDS011;32703;49.182;9.042;2022-08-03T12:46:36;1.10;;;0.80;;
26102;SDS011;32703;49.182;9.042;2022-08-03T12:49:04;1.20;;;1.10;;
26102;SDS011;32703;49.182;9.042;2022-08-03T12:51:36;1.83;;;1.20;;
26102;SDS011;32703;49.182;9.042;2022-08-03T12:54:26;0.90;;;0.88;;
26102;SDS011;32703;49.182;9.042;2022-08-03T12:59:35;1.45;;;1.10;;
26102;SDS011;32703;49.182;9.042;2022-08-03T13:02:03;1.02;;;0.82;;
26102;SDS011;32703;49.182;9.042;2022-08-03T13:04:33;2.13;;;0.93;;
26102;SDS011;32703;49.182;9.042;2022-08-03T13:07:03;1.75;;;1.10;;
26102;SDS011;32703;49.182;9.042;2022-08-03T13:09:39;1.00;;;0.90;;
26102;SDS011;32703;49.182;9.042;2022-08-03T13:12:14;1.38;;;0.98;;
26102;SDS011;32703;49.182;9.042;2022-08-03T13:14:42;1.23;;;1.00;;
26102;SDS011;32703;49.182;9.042;2022-08-03T13:17:09;1.45;;;0.95;;
26102;SDS011;32703;49.182;9.042;2022-08-03T13:19:35;2.22;;;1.00;;
26102;SDS011;32703;49.182;9.042;2022-08-03T13:22:11;1.20;;;1.10;;
26102;SDS011;32703;49.182;9.042;2022-08-03T13:24:42;1.20;;;1.10;;
26102;SDS011;32703;49.182;9.042;2022-08-03T13:27:08;1.35;;;1.08;;
26102;SDS011;32703;49.182;9.042;2022-08-03T13:29:34;1.52;;;0.98;;
26102;SDS011;32703;49.182;9.042;2022-08-03T13:32:00;1.17;;;1.08;;
26102;SDS011;32703;49.182;9.042;2022-08-03T13:34:26;1.60;;;1.10;;
26102;SDS011;32703;49.182;9.042;2022-08-03T13:36:52;1.40;;;1.00;;
26102;SDS011;32703;49.182;9.042;2022-08-03T13:39:18;1.55;;;1.20;;
26102;SDS011;32703;49.182;9.042;2022-08-03T13:41:44;1.08;;;0.98;;
26102;SDS011;32703;49.182;9.042;2022-08-03T13:44:10;2.08;;;1.23;;
26102;SDS011;32703;49.182;9.042;2022-08-03T13:46:36;1.98;;;1.27;;
26102;SDS011;32703;49.182;9.042;2022-08-03T13:49:02;1.25;;;1.00;;
26102;SDS011;32703;49.182;9.042;2022-08-03T13:51:27;5.03;;;1.20;;
26102;SDS011;32703;49.182;9.042;2022-08-03T13:53:53;1.42;;;1.13;;
26102;SDS011;32703;49.182;9.042;2022-08-03T13:56:19;1.25;;;1.15;;
26102;SDS011;32703;49.182;9.042;2022-08-03T13:58:46;1.15;;;0.85;;
26102;SDS011;32703;49.182;9.042;2022-08-03T14:01:12;1.30;;;1.10;;
26102;SDS011;32703;49.182;9.042;2022-08-03T14:03:38;1.40;;;1.30;;
26102;SDS011;32703;49.182;9.042;2022-08-03T14:06:03;1.10;;;0.90;;
26102;SDS011;32703;49.182;9.042;2022-08-03T14:08:29;0.90;;;0.90;;
26102;SDS011;32703;49.182;9.042;2022-08-03T14:10:54;3.45;;;1.58;;
26102;SDS011;32703;49.182;9.042;2022-08-03T14:13:21;1.33;;;1.13;;
26102;SDS011;32703;49.182;9.042;2022-08-03T14:15:47;1.17;;;1.08;;
26102;SDS011;32703;49.182;9.042;2022-08-03T14:18:12;2.63;;;1.85;;
26102;SDS011;32703;49.182;9.042;2022-08-03T14:20:38;1.70;;;1.00;;
26102;SDS011;32703;49.182;9.042;2022-08-03T14:23:04;1.00;;;0.80;;
26102;SDS011;32703;49.182;9.042;2022-08-03T14:25:30;2.80;;;1.08;;
26102;SDS011;32703;49.182;9.042;2022-08-03T14:27:56;1.60;;;1.20;;
26102;SDS011;32703;49.182;9.042;2022-08-03T14:30:22;1.35;;;1.10;;
26102;SDS011;32703;49.182;9.042;2022-08-03T14:32:47;0.95;;;0.90;;
26102;SDS011;32703;49.182;9.042;2022-08-03T14:35:15;2.55;;;1.10;;
26102;SDS011;32703;49.182;9.042;2022-08-03T14:37:41;1.02;;;0.93;;
26102;SDS011;32703;49.182;9.042;2022-08-03T14:40:07;0.90;;;0.90;;
26102;SDS011;32703;49.182;9.042;2022-08-03T14:42:32;1.10;;;1.00;;
26102;SDS011;32703;49.182;9.042;2022-08-03T14:44:58;1.10;;;1.00;;
26102;SDS011;32703;49.182;9.042;2022-08-03T14:47:24;1.45;;;1.15;;
26102;SDS011;32703;49.182;9.042;2022-08-03T14:49:49;3.50;;;1.02;;
26102;SDS011;32703;49.182;9.042;2022-08-03T14:52:15;1.05;;;0.93;;
26102;SDS011;32703;49.182;9.042;2022-08-03T14:54:44;1.25;;;0.93;;
26102;SDS011;32703;49.182;9.042;2022-08-03T14:57:09;1.17;;;0.90;;
26102;SDS011;32703;49.182;9.042;2022-08-03T14:59:35;0.98;;;0.90;;
26102;SDS011;32703;49.182;9.042;2022-08-03T15:02:00;1.40;;;1.10;;
26102;SDS011;32703;49.182;9.042;2022-08-03T15:04:26;1.30;;;1.08;;
26102;SDS011;32703;49.182;9.042;2022-08-03T15:06:51;1.38;;;1.08;;
26102;SDS011;32703;49.182;9.042;2022-08-03T15:09:17;1.50;;;1.08;;
26102;SDS011;32703;49.182;9.042;2022-08-03T15:11:42;1.90;;;1.08;;
26102;SDS011;32703;49.182;9.042;2022-08-03T15:14:08;1.10;;;0.98;;
26102;SDS011;32703;49.182;9.042;2022-08-03T15:16:34;1.10;;;1.00;;
26102;SDS011;32703;49.182;9.042;2022-08-03T15:18:59;1.80;;;1.10;;
26102;SDS011;32703;49.182;9.042;2022-08-03T15:21:25;0.90;;;0.90;;
26102;SDS011;32703;49.182;9.042;2022-08-03T15:23:51;1.10;;;1.00;;
26102;SDS011;32703;49.182;9.042;2022-08-03T15:26:18;1.60;;;1.17;;
26102;SDS011;32703;49.182;9.042;2022-08-03T15:28:44;1.25;;;1.00;;
26102;SDS011;32703;49.182;9.042;2022-08-03T15:31:10;1.30;;;1.10;;
26102;SDS011;32703;49.182;9.042;2022-08-03T15:33:35;1.08;;;0.80;;
26102;SDS011;32703;49.182;9.042;2022-08-03T15:36:01;1.10;;;1.00;;